createdAt,value
2016-10-16T00:00:31.726Z,738.71
2016-10-16T00:01:31.704Z,738.71
2016-10-16T00:02:31.691Z,738.76
2016-10-16T00:03:31.674Z,738.77
2016-10-16T00:04:31.660Z,738.79
2016-10-16T00:05:31.652Z,738.78
2016-10-16T00:06:31.630Z,738.74
2016-10-16T00:07:31.616Z,738.75
2016-10-16T00:08:31.602Z,738.75
2016-10-16T00:09:31.587Z,738.79
2016-10-16T00:10:31.578Z,738.82
2016-10-16T00:11:31.564Z,738.74
2016-10-16T00:12:31.543Z,738.76
2016-10-16T00:13:31.528Z,738.78
2016-10-16T00:14:31.520Z,738.78
2016-10-16T00:15:31.506Z,738.79
2016-10-16T00:16:31.492Z,738.73
2016-10-16T00:17:31.469Z,738.79
2016-10-16T00:18:31.462Z,738.78
2016-10-16T00:19:31.447Z,738.81
2016-10-16T00:20:31.434Z,738.78
2016-10-16T00:21:31.417Z,738.81
2016-10-16T00:22:31.403Z,738.8
2016-10-16T00:23:31.382Z,738.81
2016-10-16T00:24:31.366Z,738.79
2016-10-16T00:25:31.358Z,738.78
2016-10-16T00:26:31.343Z,738.81
2016-10-16T00:27:31.322Z,738.78
2016-10-16T00:28:31.313Z,738.79
2016-10-16T00:29:31.292Z,738.78
2016-10-16T00:30:31.278Z,738.79
2016-10-16T00:31:31.262Z,738.81
2016-10-16T00:32:31.247Z,738.8
2016-10-16T00:33:31.239Z,738.82
2016-10-16T00:34:31.217Z,738.79
2016-10-16T00:35:31.202Z,738.84
2016-10-16T00:36:31.188Z,738.81
2016-10-16T00:37:31.180Z,738.84
2016-10-16T00:38:31.165Z,738.85
2016-10-16T00:39:31.143Z,738.86
2016-10-16T00:40:31.128Z,738.84
2016-10-16T00:41:31.121Z,738.8
2016-10-16T00:42:31.106Z,738.81
2016-10-16T00:43:31.084Z,738.82
2016-10-16T00:44:31.069Z,738.81
2016-10-16T00:45:31.061Z,738.81
2016-10-16T00:46:31.038Z,738.82
2016-10-16T00:47:31.025Z,738.82
2016-10-16T00:48:31.010Z,738.81
2016-10-16T00:49:30.995Z,738.8
2016-10-16T00:50:30.981Z,738.81
2016-10-16T00:51:30.965Z,738.8
2016-10-16T00:52:30.950Z,738.8
2016-10-16T00:53:30.943Z,738.8
2016-10-16T00:54:30.920Z,738.79
2016-10-16T00:55:30.913Z,738.79
2016-10-16T00:56:30.898Z,738.78
2016-10-16T00:57:30.883Z,738.79
2016-10-16T00:58:30.868Z,738.75
2016-10-16T00:59:30.854Z,738.77
2016-10-16T01:00:30.832Z,738.81
2016-10-16T01:01:30.824Z,738.77
2016-10-16T01:02:30.803Z,738.78
2016-10-16T01:03:30.787Z,738.77
2016-10-16T01:04:30.772Z,738.74
2016-10-16T01:05:30.757Z,738.82
2016-10-16T01:06:30.743Z,738.75
2016-10-16T01:07:30.735Z,738.78
2016-10-16T01:08:30.714Z,738.77
2016-10-16T01:09:30.699Z,738.8
2016-10-16T01:10:30.684Z,738.77
2016-10-16T01:11:30.669Z,738.76
2016-10-16T01:12:30.664Z,738.74
2016-10-16T01:13:30.640Z,738.74
2016-10-16T01:14:30.631Z,738.75
2016-10-16T01:15:30.617Z,738.78
2016-10-16T01:16:30.595Z,738.74
2016-10-16T01:17:30.581Z,738.79
2016-10-16T01:18:30.572Z,738.72
2016-10-16T01:19:30.551Z,738.7
2016-10-16T01:20:30.535Z,738.71
2016-10-16T01:21:30.527Z,738.66
2016-10-16T01:22:30.507Z,738.66
2016-10-16T01:23:30.497Z,738.72
2016-10-16T01:24:30.475Z,738.7
2016-10-16T01:25:30.461Z,738.71
2016-10-16T01:26:30.454Z,738.7
2016-10-16T01:27:30.438Z,738.65
2016-10-16T01:28:30.423Z,738.67
2016-10-16T01:29:30.409Z,738.73
2016-10-16T01:30:30.393Z,738.73
2016-10-16T01:31:30.372Z,738.73
2016-10-16T01:32:30.356Z,738.71
2016-10-16T01:33:30.349Z,738.73
2016-10-16T01:34:30.334Z,738.73
2016-10-16T01:35:30.312Z,738.68
2016-10-16T01:36:30.298Z,738.7
2016-10-16T01:37:30.283Z,738.65
2016-10-16T01:38:30.267Z,738.64
2016-10-16T01:39:30.253Z,738.69
2016-10-16T01:40:30.244Z,738.68
2016-10-16T01:41:30.223Z,738.65
2016-10-16T01:42:30.214Z,738.62
2016-10-16T01:43:30.199Z,738.66
2016-10-16T01:44:30.178Z,738.69
2016-10-16T01:45:30.163Z,738.7
2016-10-16T01:46:30.148Z,738.66
2016-10-16T01:47:30.133Z,738.65
2016-10-16T01:48:30.125Z,738.65
2016-10-16T01:49:30.110Z,738.66
2016-10-16T01:50:30.088Z,738.61
2016-10-16T01:51:30.075Z,738.67
2016-10-16T01:52:30.059Z,738.64
2016-10-16T01:53:30.043Z,738.64
2016-10-16T01:54:30.036Z,738.72
2016-10-16T01:55:30.015Z,738.72
2016-10-16T01:56:30.006Z,738.71
2016-10-16T01:57:29.991Z,738.68
2016-10-16T01:58:29.976Z,738.7
2016-10-16T01:59:29.954Z,738.68
2016-10-16T02:00:29.940Z,738.71
2016-10-16T02:01:29.931Z,738.67
2016-10-16T02:02:29.909Z,738.72
2016-10-16T02:03:29.901Z,738.67
2016-10-16T02:04:29.886Z,738.68
2016-10-16T02:05:29.864Z,738.72
2016-10-16T02:06:29.857Z,738.76
2016-10-16T02:07:29.835Z,738.73
2016-10-16T02:08:29.826Z,738.68
2016-10-16T02:09:29.804Z,738.71
2016-10-16T02:10:29.796Z,738.77
2016-10-16T02:11:29.781Z,738.7
2016-10-16T02:12:29.767Z,738.73
2016-10-16T02:13:29.752Z,738.69
2016-10-16T02:14:29.730Z,738.72
2016-10-16T02:15:29.716Z,738.72
2016-10-16T02:16:29.700Z,738.71
2016-10-16T02:17:29.693Z,738.67
2016-10-16T02:18:29.677Z,738.71
2016-10-16T02:19:29.656Z,738.71
2016-10-16T02:20:29.648Z,738.73
2016-10-16T02:21:29.626Z,738.69
2016-10-16T02:22:29.618Z,738.7
2016-10-16T02:23:29.598Z,738.66
2016-10-16T02:24:29.582Z,738.67
2016-10-16T02:25:29.568Z,738.68
2016-10-16T02:26:29.559Z,738.68
2016-10-16T02:27:29.545Z,738.66
2016-10-16T02:28:29.524Z,738.6
2016-10-16T02:29:29.515Z,738.65
2016-10-16T02:30:29.494Z,738.61
2016-10-16T02:31:29.487Z,738.65
2016-10-16T02:32:29.471Z,738.62
2016-10-16T02:33:29.456Z,738.62
2016-10-16T02:34:29.442Z,738.66
2016-10-16T02:35:29.421Z,738.63
2016-10-16T02:36:29.405Z,738.58
2016-10-16T02:37:29.391Z,738.62
2016-10-16T02:38:29.383Z,738.64
2016-10-16T02:39:29.370Z,738.63
2016-10-16T02:40:29.354Z,738.62
2016-10-16T02:41:29.332Z,738.63
2016-10-16T02:42:29.325Z,738.62
2016-10-16T02:43:29.309Z,738.62
2016-10-16T02:44:29.288Z,738.63
2016-10-16T02:45:29.280Z,738.64
2016-10-16T02:46:29.260Z,738.61
2016-10-16T02:47:29.244Z,738.63
2016-10-16T02:48:29.236Z,738.63
2016-10-16T02:49:29.215Z,738.61
2016-10-16T02:50:29.201Z,738.62
2016-10-16T02:51:29.192Z,738.65
2016-10-16T02:52:29.172Z,738.6
2016-10-16T02:53:29.164Z,738.64
2016-10-16T02:54:29.148Z,738.62
2016-10-16T02:55:29.128Z,738.64
2016-10-16T02:56:29.112Z,738.65
2016-10-16T02:57:29.099Z,738.62
2016-10-16T02:58:29.090Z,738.66
2016-10-16T02:59:29.076Z,738.66
2016-10-16T03:00:29.062Z,738.66
2016-10-16T03:01:29.048Z,738.66
2016-10-16T03:02:29.025Z,738.64
2016-10-16T03:03:29.018Z,738.65
2016-10-16T03:04:28.997Z,738.72
2016-10-16T03:05:28.981Z,738.67
2016-10-16T03:06:28.967Z,738.66
2016-10-16T03:07:28.952Z,738.71
2016-10-16T03:08:28.939Z,738.69
2016-10-16T03:09:28.930Z,738.72
2016-10-16T03:10:28.916Z,738.71
2016-10-16T03:11:28.896Z,738.72
2016-10-16T03:12:28.880Z,738.75
2016-10-16T03:13:28.866Z,738.74
2016-10-16T03:14:28.851Z,738.77
2016-10-16T03:15:28.844Z,738.73
2016-10-16T03:16:28.829Z,738.75
2016-10-16T03:17:28.815Z,738.72
2016-10-16T03:18:28.794Z,738.76
2016-10-16T03:19:28.779Z,738.77
2016-10-16T03:20:28.764Z,738.75
2016-10-16T03:21:28.750Z,738.78
2016-10-16T03:22:28.736Z,738.78
2016-10-16T03:23:28.729Z,738.81
2016-10-16T03:24:28.715Z,738.72
2016-10-16T03:25:28.695Z,738.8
2016-10-16T03:26:28.687Z,738.77
2016-10-16T03:27:28.672Z,738.79
2016-10-16T03:28:28.652Z,738.82
2016-10-16T03:29:28.644Z,738.85
2016-10-16T03:30:28.624Z,738.86
2016-10-16T03:31:28.609Z,738.87
2016-10-16T03:32:28.601Z,738.85
2016-10-16T03:33:28.587Z,738.89
2016-10-16T03:34:28.564Z,738.9
2016-10-16T03:35:28.557Z,738.85
2016-10-16T03:36:28.536Z,738.87
2016-10-16T03:37:28.530Z,738.88
2016-10-16T03:38:28.507Z,738.91
2016-10-16T03:39:28.500Z,738.84
2016-10-16T03:40:28.486Z,738.9
2016-10-16T03:41:28.466Z,738.9
2016-10-16T03:42:28.457Z,738.86
2016-10-16T03:43:28.436Z,738.86
2016-10-16T03:44:28.429Z,738.88
2016-10-16T03:45:28.414Z,738.88
2016-10-16T03:46:28.400Z,738.89
2016-10-16T03:47:28.379Z,738.9
2016-10-16T03:48:28.472Z,738.88
2016-10-16T03:49:28.357Z,738.89
2016-10-16T03:50:28.336Z,738.93
2016-10-16T03:51:28.321Z,738.9
2016-10-16T03:52:28.315Z,738.9
2016-10-16T03:53:28.299Z,738.92
2016-10-16T03:54:28.279Z,738.9
2016-10-16T03:55:28.265Z,738.9
2016-10-16T03:56:28.256Z,738.85
2016-10-16T03:57:28.239Z,738.86
2016-10-16T03:58:28.228Z,738.88
2016-10-16T03:59:28.214Z,738.84
2016-10-16T04:00:28.199Z,738.89
2016-10-16T04:01:28.177Z,738.91
2016-10-16T04:02:28.171Z,738.89
2016-10-16T04:03:28.150Z,738.86
2016-10-16T04:04:28.142Z,738.9
2016-10-16T04:05:28.121Z,738.94
2016-10-16T04:06:28.108Z,738.92
2016-10-16T04:07:28.092Z,738.92
2016-10-16T04:08:28.085Z,738.93
2016-10-16T04:09:28.064Z,738.93
2016-10-16T04:10:28.050Z,738.91
2016-10-16T04:11:28.035Z,738.94
2016-10-16T04:12:28.028Z,738.92
2016-10-16T04:13:28.013Z,738.94
2016-10-16T04:14:27.999Z,738.94
2016-10-16T04:15:27.984Z,738.98
2016-10-16T04:16:27.963Z,738.98
2016-10-16T04:17:27.955Z,738.97
2016-10-16T04:18:27.940Z,738.95
2016-10-16T04:19:27.926Z,738.93
2016-10-16T04:20:27.905Z,738.97
2016-10-16T04:21:27.898Z,738.96
2016-10-16T04:22:27.875Z,739.02
2016-10-16T04:23:27.861Z,739.04
2016-10-16T04:24:27.854Z,739
2016-10-16T04:25:27.833Z,739.04
2016-10-16T04:26:27.817Z,739.04
2016-10-16T04:27:27.811Z,739
2016-10-16T04:28:27.790Z,738.95
2016-10-16T04:29:27.774Z,739.07
2016-10-16T04:30:27.767Z,738.99
2016-10-16T04:31:27.753Z,739.03
2016-10-16T04:32:27.733Z,739.05
2016-10-16T04:33:27.724Z,739.05
2016-10-16T04:34:27.710Z,739.08
2016-10-16T04:35:27.696Z,739.06
2016-10-16T04:36:27.674Z,739.1
2016-10-16T04:37:27.667Z,739.09
2016-10-16T04:38:27.646Z,739.06
2016-10-16T04:39:27.631Z,739.09
2016-10-16T04:40:27.616Z,739.08
2016-10-16T04:41:27.610Z,739.07
2016-10-16T04:42:27.589Z,739.09
2016-10-16T04:43:27.575Z,739.1
2016-10-16T04:44:27.567Z,739.09
2016-10-16T04:45:27.547Z,739.09
2016-10-16T04:46:27.539Z,739.07
2016-10-16T04:47:27.525Z,739.13
2016-10-16T04:48:27.510Z,739.11
2016-10-16T04:49:27.496Z,739.1
2016-10-16T04:50:27.482Z,739.09
2016-10-16T04:51:27.460Z,739.12
2016-10-16T04:52:27.448Z,739.08
2016-10-16T04:53:27.440Z,739.11
2016-10-16T04:54:27.426Z,739.13
2016-10-16T04:55:27.405Z,739.11
2016-10-16T04:56:27.391Z,739.13
2016-10-16T04:57:27.377Z,739.14
2016-10-16T04:58:27.371Z,739.1
2016-10-16T04:59:27.350Z,739.12
2016-10-16T05:00:27.336Z,739.18
2016-10-16T05:01:27.324Z,739.18
2016-10-16T05:02:27.309Z,739.13
2016-10-16T05:03:27.296Z,739.12
2016-10-16T05:04:27.289Z,739.12
2016-10-16T05:05:27.276Z,739.09
2016-10-16T05:06:27.262Z,739.09
2016-10-16T05:07:27.249Z,739.07
2016-10-16T05:08:27.236Z,739.11
2016-10-16T05:09:27.222Z,739.09
2016-10-16T05:10:27.209Z,739.12
2016-10-16T05:11:27.188Z,739.13
2016-10-16T05:12:27.176Z,739.13
2016-10-16T05:13:27.162Z,739.13
2016-10-16T05:14:27.156Z,739.13
2016-10-16T05:15:27.137Z,739.14
2016-10-16T05:16:27.126Z,739.12
2016-10-16T05:17:27.118Z,739.13
2016-10-16T05:18:27.099Z,739.18
2016-10-16T05:19:27.085Z,739.15
2016-10-16T05:20:27.079Z,739.19
2016-10-16T05:21:27.059Z,739.2
2016-10-16T05:22:27.048Z,739.19
2016-10-16T05:23:27.035Z,739.19
2016-10-16T05:24:27.021Z,739.2
2016-10-16T05:25:27.008Z,739.22
2016-10-16T05:26:27.003Z,739.24
2016-10-16T05:27:26.985Z,739.21
2016-10-16T05:28:26.978Z,739.24
2016-10-16T05:29:26.959Z,739.22
2016-10-16T05:30:26.946Z,739.23
2016-10-16T05:31:26.940Z,739.26
2016-10-16T05:32:26.927Z,739.2
2016-10-16T05:33:26.908Z,739.28
2016-10-16T05:34:26.903Z,739.27
2016-10-16T05:35:26.882Z,739.27
2016-10-16T05:36:26.871Z,739.26
2016-10-16T05:37:26.858Z,739.25
2016-10-16T05:38:26.853Z,739.27
2016-10-16T05:39:26.839Z,739.28
2016-10-16T05:40:26.827Z,739.28
2016-10-16T05:41:26.815Z,739.3
2016-10-16T05:42:26.802Z,739.27
2016-10-16T05:43:26.783Z,739.3
2016-10-16T05:44:26.778Z,739.31
2016-10-16T05:45:26.759Z,739.32
2016-10-16T05:46:26.747Z,739.34
2016-10-16T05:47:26.741Z,739.31
2016-10-16T05:48:26.728Z,739.3
2016-10-16T05:49:26.717Z,739.32
2016-10-16T05:50:26.698Z,739.36
2016-10-16T05:51:26.692Z,739.35
2016-10-16T05:52:26.680Z,739.37
2016-10-16T05:53:26.660Z,739.35
2016-10-16T05:54:26.648Z,739.4
2016-10-16T05:55:26.638Z,739.44
2016-10-16T05:56:26.633Z,739.41
2016-10-16T05:57:26.613Z,739.42
2016-10-16T05:58:26.603Z,739.37
2016-10-16T05:59:26.591Z,739.42
2016-10-16T06:00:26.586Z,739.42
2016-10-16T06:01:26.574Z,739.43
2016-10-16T06:02:26.562Z,739.44
2016-10-16T06:03:26.544Z,739.45
2016-10-16T06:04:26.533Z,739.46
2016-10-16T06:05:26.528Z,739.47
2016-10-16T06:06:26.520Z,739.49
2016-10-16T06:07:26.505Z,739.46
2016-10-16T06:08:26.493Z,739.51
2016-10-16T06:09:26.475Z,739.49
2016-10-16T06:10:26.471Z,739.5
2016-10-16T06:11:26.460Z,739.55
2016-10-16T06:12:26.442Z,739.57
2016-10-16T06:13:26.430Z,739.57
2016-10-16T06:14:26.426Z,739.57
2016-10-16T06:15:26.416Z,739.6
2016-10-16T06:16:26.403Z,739.62
2016-10-16T06:17:26.392Z,739.61
2016-10-16T06:18:26.374Z,739.66
2016-10-16T06:19:26.369Z,739.68
2016-10-16T06:20:26.352Z,739.61
2016-10-16T06:21:26.341Z,739.73
2016-10-16T06:22:26.338Z,739.65
2016-10-16T06:23:26.326Z,739.69
2016-10-16T06:24:26.308Z,739.67
2016-10-16T06:25:26.300Z,739.69
2016-10-16T06:26:26.295Z,739.75
2016-10-16T06:27:26.285Z,739.73
2016-10-16T06:28:26.268Z,739.72
2016-10-16T06:29:26.266Z,739.77
2016-10-16T06:30:26.249Z,739.8
2016-10-16T06:31:26.240Z,739.79
2016-10-16T06:32:26.237Z,739.77
2016-10-16T06:33:26.228Z,739.75
2016-10-16T06:34:26.211Z,739.78
2016-10-16T06:35:26.209Z,739.77
2016-10-16T06:36:26.201Z,739.76
2016-10-16T06:37:26.183Z,739.75
2016-10-16T06:38:26.174Z,739.77
2016-10-16T06:39:26.167Z,739.76
2016-10-16T06:40:26.158Z,739.8
2016-10-16T06:41:26.147Z,739.84
2016-10-16T06:42:26.140Z,739.8
2016-10-16T06:43:26.138Z,739.79
2016-10-16T06:44:26.129Z,739.81
2016-10-16T06:45:26.121Z,739.89
2016-10-16T06:46:26.113Z,739.85
2016-10-16T06:47:26.105Z,739.84
2016-10-16T06:48:26.096Z,739.92
2016-10-16T06:49:26.089Z,739.89
2016-10-16T06:50:26.075Z,739.9
2016-10-16T06:51:26.066Z,739.89
2016-10-16T06:52:26.065Z,739.88
2016-10-16T06:53:26.050Z,739.9
2016-10-16T06:54:26.043Z,739.85
2016-10-16T06:55:26.036Z,739.87
2016-10-16T06:56:26.027Z,739.91
2016-10-16T06:57:26.021Z,739.91
2016-10-16T06:58:26.013Z,739.93
2016-10-16T06:59:26.005Z,739.92
2016-10-16T07:00:26.004Z,739.95
2016-10-16T07:01:25.997Z,739.94
2016-10-16T07:02:25.990Z,739.97
2016-10-16T07:03:25.981Z,739.95
2016-10-16T07:04:25.974Z,739.95
2016-10-16T07:05:25.960Z,740
2016-10-16T07:06:25.952Z,740.02
2016-10-16T07:07:25.944Z,739.99
2016-10-16T07:08:25.944Z,739.97
2016-10-16T07:09:25.937Z,740
2016-10-16T07:10:25.923Z,739.99
2016-10-16T07:11:25.922Z,740.03
2016-10-16T07:12:25.908Z,740.07
2016-10-16T07:13:25.908Z,740.09
2016-10-16T07:14:25.901Z,740.06
2016-10-16T07:15:25.893Z,740.13
2016-10-16T07:16:25.887Z,740.08
2016-10-16T07:17:25.879Z,740.09
2016-10-16T07:18:25.872Z,740.11
2016-10-16T07:19:25.865Z,740.1
2016-10-16T07:20:25.852Z,740.1
2016-10-16T07:21:25.850Z,740.11
2016-10-16T07:22:25.837Z,740.1
2016-10-16T07:23:25.836Z,740.16
2016-10-16T07:24:25.821Z,740.1
2016-10-16T07:25:25.819Z,740.12
2016-10-16T07:26:25.805Z,740.12
2016-10-16T07:27:25.797Z,740.14
2016-10-16T07:28:25.794Z,740.19
2016-10-16T07:29:25.779Z,740.18
2016-10-16T07:30:25.777Z,740.18
2016-10-16T07:31:25.761Z,740.18
2016-10-16T07:32:25.752Z,740.18
2016-10-16T07:33:25.744Z,740.18
2016-10-16T07:34:25.735Z,740.22
2016-10-16T07:35:25.732Z,740.2
2016-10-16T07:36:25.715Z,740.21
2016-10-16T07:37:25.714Z,740.22
2016-10-16T07:38:25.699Z,740.23
2016-10-16T07:39:25.688Z,740.25
2016-10-16T07:40:25.686Z,740.22
2016-10-16T07:41:25.669Z,740.24
2016-10-16T07:42:25.661Z,740.26
2016-10-16T07:43:25.658Z,740.27
2016-10-16T07:44:25.651Z,740.23
2016-10-16T07:45:25.641Z,740.29
2016-10-16T07:46:25.632Z,740.3
2016-10-16T07:47:25.616Z,740.3
2016-10-16T07:48:25.613Z,740.29
2016-10-16T07:49:25.604Z,740.34
2016-10-16T07:50:25.587Z,740.31
2016-10-16T07:51:25.585Z,740.33
2016-10-16T07:52:25.568Z,740.33
2016-10-16T07:53:25.567Z,740.39
2016-10-16T07:54:25.549Z,740.33
2016-10-16T07:55:25.547Z,740.35
2016-10-16T07:56:25.532Z,740.38
2016-10-16T07:57:25.529Z,740.42
2016-10-16T07:58:25.519Z,740.43
2016-10-16T07:59:25.503Z,740.39
2016-10-16T08:00:25.501Z,740.4
2016-10-16T08:01:25.491Z,740.38
2016-10-16T08:02:25.482Z,740.41
2016-10-16T08:03:25.472Z,740.41
2016-10-16T08:04:25.457Z,740.44
2016-10-16T08:05:25.453Z,740.47
2016-10-16T08:06:25.444Z,740.42
2016-10-16T08:07:25.428Z,740.45
2016-10-16T08:08:25.419Z,740.47
2016-10-16T08:09:25.423Z,740.42
2016-10-16T08:10:25.400Z,740.46
2016-10-16T08:11:25.390Z,740.47
2016-10-16T08:12:25.388Z,740.48
2016-10-16T08:13:25.371Z,740.52
2016-10-16T08:14:25.369Z,740.54
2016-10-16T08:15:25.354Z,740.51
2016-10-16T08:16:25.343Z,740.49
2016-10-16T08:17:25.341Z,740.54
2016-10-16T08:18:25.326Z,740.53
2016-10-16T08:19:25.315Z,740.52
2016-10-16T08:20:25.305Z,740.57
2016-10-16T08:21:25.304Z,740.58
2016-10-16T08:22:25.294Z,740.6
2016-10-16T08:23:25.284Z,740.62
2016-10-16T08:24:25.275Z,740.66
2016-10-16T08:25:25.259Z,740.66
2016-10-16T08:26:25.250Z,740.65
2016-10-16T08:27:25.239Z,740.69
2016-10-16T08:28:25.237Z,740.66
2016-10-16T08:29:25.228Z,740.72
2016-10-16T08:30:25.211Z,740.7
2016-10-16T08:31:25.209Z,740.69
2016-10-16T08:32:25.200Z,740.7
2016-10-16T08:33:25.191Z,740.7
2016-10-16T08:34:25.200Z,740.74
2016-10-16T08:35:25.171Z,740.72
2016-10-16T08:36:25.163Z,740.73
2016-10-16T08:37:25.146Z,740.75
2016-10-16T08:38:25.136Z,740.74
2016-10-16T08:39:25.135Z,740.72
2016-10-16T08:40:25.119Z,740.77
2016-10-16T08:41:25.109Z,740.77
2016-10-16T08:42:25.106Z,740.77
2016-10-16T08:43:25.097Z,740.77
2016-10-16T08:44:25.081Z,740.83
2016-10-16T08:45:25.079Z,740.78
2016-10-16T08:46:25.063Z,740.8
2016-10-16T08:47:25.054Z,740.86
2016-10-16T08:48:25.045Z,740.78
2016-10-16T08:49:25.034Z,740.82
2016-10-16T08:50:25.033Z,740.86
2016-10-16T08:51:25.024Z,740.84
2016-10-16T08:52:25.014Z,740.89
2016-10-16T08:53:25.005Z,740.89
2016-10-16T08:54:24.990Z,740.91
2016-10-16T08:55:24.980Z,740.88
2016-10-16T08:56:24.977Z,740.91
2016-10-16T08:57:24.962Z,740.88
2016-10-16T08:58:24.952Z,740.89
2016-10-16T08:59:24.944Z,740.91
2016-10-16T09:00:24.934Z,740.9
2016-10-16T09:01:24.931Z,740.95
2016-10-16T09:02:24.922Z,740.9
2016-10-16T09:03:24.911Z,740.97
2016-10-16T09:04:24.895Z,740.97
2016-10-16T09:05:24.887Z,740.94
2016-10-16T09:06:24.877Z,740.95
2016-10-16T09:07:24.867Z,740.97
2016-10-16T09:08:24.857Z,740.97
2016-10-16T09:09:24.855Z,740.96
2016-10-16T09:10:24.846Z,740.96
2016-10-16T09:11:24.836Z,740.96
2016-10-16T09:12:24.820Z,740.96
2016-10-16T09:13:24.811Z,740.94
2016-10-16T09:14:24.808Z,740.96
2016-10-16T09:15:24.798Z,740.93
2016-10-16T09:16:24.782Z,740.91
2016-10-16T09:17:24.774Z,740.94
2016-10-16T09:18:24.769Z,740.94
2016-10-16T09:19:24.754Z,740.9
2016-10-16T09:20:24.745Z,740.95
2016-10-16T09:21:24.741Z,740.94
2016-10-16T09:22:24.725Z,740.92
2016-10-16T09:23:24.722Z,740.93
2016-10-16T09:24:24.706Z,740.98
2016-10-16T09:25:24.697Z,740.94
2016-10-16T09:26:24.694Z,740.98
2016-10-16T09:27:24.685Z,740.97
2016-10-16T09:28:24.669Z,740.97
2016-10-16T09:29:24.666Z,741
2016-10-16T09:30:24.651Z,740.99
2016-10-16T09:31:24.648Z,741.01
2016-10-16T09:32:24.632Z,741.03
2016-10-16T09:33:24.630Z,740.98
2016-10-16T09:34:24.614Z,740.98
2016-10-16T09:35:24.606Z,740.99
2016-10-16T09:36:24.596Z,741.04
2016-10-16T09:37:24.594Z,741.03
2016-10-16T09:38:24.578Z,741.01
2016-10-16T09:39:24.576Z,741.07
2016-10-16T09:40:24.567Z,741.06
2016-10-16T09:41:24.558Z,741.05
2016-10-16T09:42:24.543Z,741.02
2016-10-16T09:43:24.541Z,741.07
2016-10-16T09:44:24.582Z,741.05
2016-10-16T09:45:24.517Z,741.05
2016-10-16T09:46:24.508Z,741.07
2016-10-16T09:47:24.505Z,741.07
2016-10-16T09:48:24.497Z,741.11
2016-10-16T09:49:24.492Z,741.08
2016-10-16T09:50:24.480Z,741.09
2016-10-16T09:51:24.464Z,741.09
2016-10-16T09:52:24.456Z,741.11
2016-10-16T09:53:24.447Z,741.09
2016-10-16T09:54:24.444Z,741.12
2016-10-16T09:55:24.436Z,741.13
2016-10-16T09:56:24.427Z,741.11
2016-10-16T09:57:24.411Z,741.14
2016-10-16T09:58:24.402Z,741.12
2016-10-16T09:59:24.401Z,741.13
2016-10-16T10:00:24.385Z,741.15
2016-10-16T10:01:24.384Z,741.17
2016-10-16T10:02:24.367Z,741.21
2016-10-16T10:03:24.365Z,741.15
2016-10-16T10:04:24.357Z,741.2
2016-10-16T10:05:24.347Z,741.22
2016-10-16T10:06:24.332Z,741.23
2016-10-16T10:07:24.330Z,741.23
2016-10-16T10:08:24.315Z,741.26
2016-10-16T10:09:24.311Z,741.25
2016-10-16T10:10:24.302Z,741.24
2016-10-16T10:11:24.294Z,741.27
2016-10-16T10:12:24.278Z,741.29
2016-10-16T10:13:24.268Z,741.25
2016-10-16T10:14:24.266Z,741.25
2016-10-16T10:15:24.257Z,741.24
2016-10-16T10:16:24.240Z,741.21
2016-10-16T10:17:24.230Z,741.27
2016-10-16T10:18:24.229Z,741.28
2016-10-16T10:19:24.220Z,741.29
2016-10-16T10:20:24.210Z,741.3
2016-10-16T10:21:24.195Z,741.3
2016-10-16T10:22:24.192Z,741.28
2016-10-16T10:23:24.183Z,741.3
2016-10-16T10:24:24.178Z,741.29
2016-10-16T10:25:24.165Z,741.28
2016-10-16T10:26:24.149Z,741.28
2016-10-16T10:27:24.146Z,741.28
2016-10-16T10:28:24.130Z,741.29
2016-10-16T10:29:24.129Z,741.27
2016-10-16T10:30:24.120Z,741.29
2016-10-16T10:31:24.111Z,741.29
2016-10-16T10:32:24.102Z,741.29
2016-10-16T10:33:24.086Z,741.29
2016-10-16T10:34:24.087Z,741.32
2016-10-16T10:35:24.076Z,741.33
2016-10-16T10:36:24.061Z,741.33
2016-10-16T10:37:24.052Z,741.31
2016-10-16T10:38:24.049Z,741.34
2016-10-16T10:39:24.041Z,741.34
2016-10-16T10:40:24.025Z,741.3
2016-10-16T10:41:24.024Z,741.38
2016-10-16T10:42:24.015Z,741.33
2016-10-16T10:43:24.000Z,741.34
2016-10-16T10:44:23.991Z,741.33
2016-10-16T10:45:23.984Z,741.32
2016-10-16T10:46:23.975Z,741.36
2016-10-16T10:47:23.973Z,741.35
2016-10-16T10:48:23.965Z,741.36
2016-10-16T10:49:23.956Z,741.35
2016-10-16T10:50:23.948Z,741.38
2016-10-16T10:51:23.940Z,741.39
2016-10-16T10:52:23.933Z,741.35
2016-10-16T10:53:23.923Z,741.4
2016-10-16T10:54:23.916Z,741.4
2016-10-16T10:55:23.907Z,741.43
2016-10-16T10:56:23.893Z,741.4
2016-10-16T10:57:23.891Z,741.43
2016-10-16T10:58:23.883Z,741.44
2016-10-16T10:59:23.869Z,741.4
2016-10-16T11:00:23.860Z,741.45
2016-10-16T11:01:23.851Z,741.41
2016-10-16T11:02:23.850Z,741.43
2016-10-16T11:03:23.842Z,741.46
2016-10-16T11:04:23.828Z,741.42
2016-10-16T11:05:23.825Z,741.43
2016-10-16T11:06:23.817Z,741.41
2016-10-16T11:07:23.810Z,741.37
2016-10-16T11:08:23.801Z,741.44
2016-10-16T11:09:23.793Z,741.38
2016-10-16T11:10:23.786Z,741.46
2016-10-16T11:11:23.770Z,741.37
2016-10-16T11:12:23.770Z,741.37
2016-10-16T11:13:23.762Z,741.36
2016-10-16T11:14:23.747Z,741.37
2016-10-16T11:15:23.740Z,741.41
2016-10-16T11:16:23.739Z,741.36
2016-10-16T11:17:23.731Z,741.35
2016-10-16T11:18:23.716Z,741.39
2016-10-16T11:19:23.717Z,741.43
2016-10-16T11:20:23.709Z,741.39
2016-10-16T11:21:23.695Z,741.39
2016-10-16T11:22:23.685Z,741.41
2016-10-16T11:23:23.679Z,741.42
2016-10-16T11:24:23.670Z,741.43
2016-10-16T11:25:23.670Z,741.42
2016-10-16T11:26:23.654Z,741.44
2016-10-16T11:27:23.653Z,741.43
2016-10-16T11:28:23.646Z,741.39
2016-10-16T11:29:23.630Z,741.43
2016-10-16T11:30:23.624Z,741.39
2016-10-16T11:31:23.615Z,741.44
2016-10-16T11:32:23.610Z,741.49
2016-10-16T11:33:23.600Z,741.46
2016-10-16T11:34:23.593Z,741.48
2016-10-16T11:35:23.592Z,741.48
2016-10-16T11:36:23.578Z,741.42
2016-10-16T11:37:23.577Z,741.4
2016-10-16T11:38:23.570Z,741.42
2016-10-16T11:39:23.563Z,741.45
2016-10-16T11:40:23.555Z,741.47
2016-10-16T11:41:23.548Z,741.46
2016-10-16T11:42:23.535Z,741.4
2016-10-16T11:43:23.535Z,741.44
2016-10-16T11:44:23.527Z,741.39
2016-10-16T11:45:23.521Z,741.46
2016-10-16T11:46:23.507Z,741.4
2016-10-16T11:47:23.501Z,741.43
2016-10-16T11:48:23.492Z,741.44
2016-10-16T11:49:23.486Z,741.37
2016-10-16T11:50:23.487Z,741.4
2016-10-16T11:51:23.479Z,741.43
2016-10-16T11:52:23.472Z,741.39
2016-10-16T11:53:23.466Z,741.42
2016-10-16T11:54:23.460Z,741.37
2016-10-16T11:55:23.452Z,741.41
2016-10-16T11:56:23.439Z,741.43
2016-10-16T11:57:23.440Z,741.4
2016-10-16T11:58:23.427Z,741.4
2016-10-16T11:59:23.427Z,741.43
2016-10-16T12:00:23.415Z,741.4
2016-10-16T12:01:23.408Z,741.44
2016-10-16T12:02:23.401Z,741.45
2016-10-16T12:03:23.402Z,741.42
2016-10-16T12:04:23.395Z,741.44
2016-10-16T12:05:23.389Z,741.49
2016-10-16T12:06:23.382Z,741.46
2016-10-16T12:07:23.369Z,741.54
2016-10-16T12:08:23.363Z,741.56
2016-10-16T12:09:23.359Z,741.51
2016-10-16T12:10:23.358Z,741.54
2016-10-16T12:11:23.353Z,741.54
2016-10-16T12:12:23.348Z,741.53
2016-10-16T12:13:23.336Z,741.53
2016-10-16T12:14:23.338Z,741.55
2016-10-16T12:15:23.333Z,741.54
2016-10-16T12:16:23.328Z,741.56
2016-10-16T12:17:23.316Z,741.55
2016-10-16T12:18:23.312Z,741.58
2016-10-16T12:19:23.307Z,741.55
2016-10-16T12:20:23.303Z,741.6
2016-10-16T12:21:23.297Z,741.61
2016-10-16T12:22:23.299Z,741.62
2016-10-16T12:23:23.289Z,741.58
2016-10-16T12:24:23.289Z,741.61
2016-10-16T12:25:23.285Z,741.62
2016-10-16T12:26:23.274Z,741.57
2016-10-16T12:27:23.277Z,741.52
2016-10-16T12:28:23.272Z,741.54
2016-10-16T12:29:23.260Z,741.54
2016-10-16T12:30:23.255Z,741.58
2016-10-16T12:31:23.252Z,741.51